createdAt,value
2023-04-09T00:01:03.263Z,17.58
2023-04-09T00:03:30.787Z,19.20
2023-04-09T00:05:58.312Z,18.13
2023-04-09T00:08:25.573Z,18.92
2023-04-09T00:10:53.325Z,19.13
2023-04-09T00:13:31.760Z,19.25
2023-04-09T00:16:05.564Z,18.80
2023-04-09T00:18:32.891Z,18.85
2023-04-09T00:21:00.147Z,18.73
2023-04-09T00:23:27.339Z,17.10
2023-04-09T00:25:54.676Z,17.25
2023-04-09T00:28:21.936Z,17.55
2023-04-09T00:30:49.117Z,19.67
2023-04-09T00:33:16.373Z,20.00
2023-04-09T00:35:43.278Z,19.50
2023-04-09T00:38:10.446Z,20.60
2023-04-09T00:40:37.656Z,19.92
2023-04-09T00:43:04.945Z,20.08
2023-04-09T00:45:32.220Z,19.40
2023-04-09T00:47:59.501Z,18.30
2023-04-09T00:50:26.547Z,17.85
2023-04-09T00:52:53.429Z,19.27
2023-04-09T00:55:22.485Z,18.95
2023-04-09T00:57:49.684Z,20.50
2023-04-09T01:00:16.617Z,20.45
2023-04-09T01:02:44.379Z,23.35
2023-04-09T01:05:12.762Z,24.73
2023-04-09T01:08:13.478Z,25.33
2023-04-09T01:10:49.930Z,26.98
2023-04-09T01:13:43.701Z,27.02
2023-04-09T01:18:38.463Z,27.13
2023-04-09T01:21:36.447Z,26.95
2023-04-09T01:24:24.672Z,24.58
2023-04-09T01:27:01.646Z,26.20
2023-04-09T01:29:32.206Z,23.63
2023-04-09T01:32:00.762Z,23.30
2023-04-09T01:34:29.792Z,23.77
2023-04-09T01:36:59.590Z,23.17
2023-04-09T01:39:27.152Z,23.00
2023-04-09T01:41:54.657Z,22.23
2023-04-09T01:44:22.155Z,21.67
2023-04-09T01:46:50.054Z,20.35
2023-04-09T01:49:18.096Z,23.02
2023-04-09T01:51:45.013Z,22.35
2023-04-09T01:54:11.822Z,22.60
2023-04-09T01:56:47.084Z,21.90
2023-04-09T01:59:14.740Z,21.30
2023-04-09T02:01:47.270Z,21.20
2023-04-09T02:04:28.868Z,21.25
2023-04-09T02:07:27.122Z,21.60
2023-04-09T02:09:55.280Z,19.60
2023-04-09T02:12:23.464Z,19.38
2023-04-09T02:14:53.645Z,20.80
2023-04-09T02:17:20.934Z,21.73
2023-04-09T02:19:48.748Z,21.23
2023-04-09T02:22:17.328Z,20.63
2023-04-09T02:24:44.675Z,20.88
2023-04-09T02:27:11.544Z,21.40
2023-04-09T02:29:40.462Z,20.92
2023-04-09T02:32:07.794Z,20.55
2023-04-09T02:34:34.604Z,21.48
2023-04-09T02:37:01.943Z,20.88
2023-04-09T02:39:28.851Z,21.95
2023-04-09T02:41:56.365Z,22.10
2023-04-09T02:44:23.599Z,21.67
2023-04-09T02:46:52.156Z,24.15
2023-04-09T02:49:19.031Z,23.08
2023-04-09T02:51:46.385Z,22.67
2023-04-09T02:54:13.593Z,22.48
2023-04-09T02:56:40.835Z,25.75
2023-04-09T02:59:07.774Z,22.63
2023-04-09T03:01:34.813Z,23.75
2023-04-09T03:04:02.229Z,22.23
2023-04-09T03:06:29.339Z,22.40
2023-04-09T03:08:56.600Z,23.25
2023-04-09T03:11:23.810Z,22.42
2023-04-09T03:13:50.673Z,23.88
2023-04-09T03:16:17.547Z,24.13
2023-04-09T03:18:44.489Z,22.98
2023-04-09T03:21:14.766Z,24.25
2023-04-09T03:23:41.897Z,24.15
2023-04-09T03:26:09.203Z,23.15
2023-04-09T03:28:36.580Z,23.92
2023-04-09T03:31:03.394Z,27.10
2023-04-09T03:33:30.322Z,26.08
2023-04-09T03:35:57.597Z,27.77
2023-04-09T03:38:24.524Z,26.95
2023-04-09T03:40:51.326Z,27.65
2023-04-09T03:43:18.207Z,24.58
2023-04-09T03:45:45.633Z,24.98
2023-04-09T03:48:12.833Z,25.60
2023-04-09T03:50:40.973Z,25.67
2023-04-09T03:53:08.361Z,26.25
2023-04-09T03:55:35.563Z,27.50
2023-04-09T03:58:02.723Z,27.45
2023-04-09T04:00:29.540Z,29.05
2023-04-09T04:02:56.846Z,30.02
2023-04-09T04:05:26.104Z,29.23
2023-04-09T04:07:53.427Z,27.73
2023-04-09T04:10:20.688Z,27.70
2023-04-09T04:12:48.080Z,26.38
2023-04-09T04:15:15.085Z,26.40
2023-04-09T04:17:41.974Z,27.05
2023-04-09T04:20:10.557Z,28.88
2023-04-09T04:22:37.788Z,29.60
2023-04-09T04:25:05.487Z,30.67
2023-04-09T04:27:32.772Z,30.05
2023-04-09T04:30:00.329Z,29.65
2023-04-09T04:32:27.434Z,29.65
2023-04-09T04:34:54.622Z,30.15
2023-04-09T04:37:21.989Z,28.15
2023-04-09T04:39:49.208Z,27.05
2023-04-09T04:42:16.750Z,28.70
2023-04-09T04:44:44.508Z,25.55
2023-04-09T04:47:12.020Z,26.42
2023-04-09T04:49:38.924Z,25.85
2023-04-09T04:52:06.625Z,27.92
2023-04-09T04:54:34.530Z,29.85
2023-04-09T04:57:01.686Z,30.58
2023-04-09T04:59:28.722Z,30.73
2023-04-09T05:01:56.166Z,30.63
2023-04-09T05:04:23.583Z,25.80
2023-04-09T05:06:50.575Z,25.17
2023-04-09T05:09:17.378Z,23.98
2023-04-09T05:11:44.591Z,24.58
2023-04-09T05:14:13.156Z,25.60
2023-04-09T05:16:40.318Z,24.42
2023-04-09T05:19:08.258Z,24.58
2023-04-09T05:21:35.607Z,25.77
2023-04-09T05:24:02.738Z,26.08
2023-04-09T05:26:29.950Z,26.30
2023-04-09T05:28:57.169Z,27.42
2023-04-09T05:31:24.203Z,27.27
2023-04-09T05:33:51.136Z,28.50
2023-04-09T05:36:18.714Z,26.60
2023-04-09T05:38:47.425Z,25.58
2023-04-09T05:41:14.275Z,26.02
2023-04-09T05:43:42.786Z,27.38
2023-04-09T05:46:10.124Z,28.98
2023-04-09T05:48:37.495Z,24.83
2023-04-09T05:51:04.562Z,24.67
2023-04-09T05:53:32.112Z,21.55
2023-04-09T05:55:59.035Z,19.00
2023-04-09T05:58:26.003Z,18.15
2023-04-09T06:00:53.350Z,19.27
2023-04-09T06:03:20.974Z,18.55
2023-04-09T06:05:48.480Z,16.95
2023-04-09T06:08:16.227Z,18.23
2023-04-09T06:10:43.089Z,17.02
2023-04-09T06:13:10.435Z,17.63
2023-04-09T06:15:39.046Z,17.63
2023-04-09T06:18:06.537Z,22.50
2023-04-09T06:20:34.078Z,18.38
2023-04-09T06:23:02.322Z,19.00
2023-04-09T06:25:29.566Z,17.15
2023-04-09T06:27:56.868Z,17.10
2023-04-09T06:30:24.056Z,17.83
2023-04-09T06:32:54.918Z,17.75
2023-04-09T06:35:22.472Z,17.58
2023-04-09T06:37:49.776Z,17.70
2023-04-09T06:40:16.903Z,25.33
2023-04-09T06:42:44.170Z,20.65
2023-04-09T06:45:11.563Z,20.10
2023-04-09T06:47:38.430Z,19.05
2023-04-09T06:50:05.816Z,19.95
2023-04-09T06:52:33.045Z,23.33
2023-04-09T06:55:00.421Z,15.45
2023-04-09T06:57:27.671Z,15.05
2023-04-09T06:59:54.956Z,14.90
2023-04-09T07:02:22.340Z,12.13
2023-04-09T07:04:49.748Z,12.20
2023-04-09T07:07:16.872Z,11.65
2023-04-09T07:09:43.805Z,9.45
2023-04-09T07:12:11.097Z,10.80
2023-04-09T07:14:37.961Z,10.57
2023-04-09T07:17:05.430Z,11.80
2023-04-09T07:19:32.631Z,11.75
2023-04-09T07:21:59.420Z,10.88
2023-04-09T07:24:26.595Z,10.75
2023-04-09T07:26:53.912Z,10.05
2023-04-09T07:29:22.469Z,10.02
2023-04-09T07:31:49.793Z,10.20
2023-04-09T07:34:16.973Z,20.65
2023-04-09T07:36:44.263Z,10.75
2023-04-09T07:39:11.641Z,18.73
2023-04-09T07:41:38.840Z,18.15
2023-04-09T07:44:06.541Z,10.52
2023-04-09T07:46:34.554Z,10.57
2023-04-09T07:49:01.764Z,9.77
2023-04-09T07:51:28.650Z,9.63
2023-04-09T07:53:55.964Z,12.30
2023-04-09T07:56:23.192Z,9.52
2023-04-09T07:58:50.901Z,9.93
2023-04-09T08:01:18.353Z,10.13
2023-04-09T08:03:46.052Z,9.27
2023-04-09T08:06:13.036Z,9.98
2023-04-09T08:08:40.332Z,9.80
2023-04-09T08:11:07.709Z,11.00
2023-04-09T08:13:34.627Z,10.05
2023-04-09T08:16:05.161Z,11.18
2023-04-09T08:18:31.992Z,10.98
2023-04-09T08:20:59.279Z,10.90
2023-04-09T08:23:26.558Z,10.70
2023-04-09T08:25:53.491Z,10.75
2023-04-09T08:28:20.308Z,10.55
2023-04-09T08:30:48.961Z,10.95
2023-04-09T08:33:17.080Z,11.02
2023-04-09T08:35:44.840Z,10.68
2023-04-09T08:38:12.102Z,11.38
2023-04-09T08:40:39.412Z,11.18
2023-04-09T08:43:07.983Z,11.15
2023-04-09T08:45:35.388Z,11.77
2023-04-09T08:48:03.884Z,11.60
2023-04-09T08:50:32.631Z,12.80
2023-04-09T08:53:02.935Z,11.73
2023-04-09T08:55:31.308Z,11.40
2023-04-09T08:57:58.594Z,10.90
2023-04-09T09:00:26.251Z,11.57
2023-04-09T09:03:04.814Z,12.23
2023-04-09T09:05:40.346Z,17.90
2023-04-09T09:08:09.297Z,11.23
2023-04-09T09:10:43.309Z,11.55
2023-04-09T09:13:26.832Z,12.20
2023-04-09T09:16:13.140Z,12.45
2023-04-09T09:18:42.148Z,11.55
2023-04-09T09:21:13.630Z,12.65
2023-04-09T09:23:40.827Z,12.70
2023-04-09T09:26:16.538Z,11.77
2023-04-09T09:28:43.486Z,11.80
2023-04-09T09:31:12.509Z,11.38
2023-04-09T09:33:40.446Z,10.32
2023-04-09T09:36:09.578Z,45.17
2023-04-09T09:38:57.270Z,19.92
2023-04-09T09:41:25.962Z,10.95
2023-04-09T09:43:53.078Z,10.07
2023-04-09T09:46:21.830Z,9.15
2023-04-09T09:48:49.856Z,9.02
2023-04-09T09:51:17.430Z,9.30
2023-04-09T09:53:46.584Z,9.48
2023-04-09T09:56:18.971Z,10.10
2023-04-09T09:58:56.628Z,9.82
2023-04-09T10:01:26.648Z,8.82
2023-04-09T10:03:56.488Z,9.52
2023-04-09T10:06:24.042Z,9.57
2023-04-09T10:08:52.691Z,9.32
2023-04-09T10:11:20.916Z,9.75
2023-04-09T10:13:53.901Z,10.13
2023-04-09T10:16:23.427Z,8.88
2023-04-09T10:18:51.174Z,8.77
2023-04-09T10:21:54.853Z,11.18
2023-04-09T10:24:22.114Z,11.32
2023-04-09T10:26:49.004Z,9.20
2023-04-09T10:29:16.986Z,9.45
2023-04-09T10:31:50.075Z,10.35
2023-04-09T10:36:55.672Z,11.60
2023-04-09T10:39:32.053Z,14.85
2023-04-09T10:42:02.372Z,10.15
2023-04-09T10:44:32.918Z,9.23
2023-04-09T10:46:59.871Z,9.20
2023-04-09T10:49:27.566Z,8.57
2023-04-09T10:52:04.707Z,8.95
2023-04-09T10:54:34.305Z,8.15
2023-04-09T10:57:07.414Z,7.88
2023-04-09T10:59:40.468Z,7.95
2023-04-09T11:02:10.772Z,8.40
2023-04-09T11:04:56.518Z,7.50
2023-04-09T11:07:25.238Z,7.47
2023-04-09T11:09:52.442Z,7.47
2023-04-09T11:12:19.258Z,7.28
2023-04-09T11:14:46.133Z,9.43
2023-04-09T11:17:13.574Z,7.38
2023-04-09T11:19:40.617Z,7.75
2023-04-09T11:22:07.967Z,8.38
2023-04-09T11:24:44.758Z,8.25
2023-04-09T11:27:11.999Z,13.57
2023-04-09T11:29:39.134Z,6.75
2023-04-09T11:32:06.594Z,6.78
2023-04-09T11:34:33.860Z,6.97
2023-04-09T11:37:05.416Z,6.28
2023-04-09T11:39:32.264Z,7.07
2023-04-09T11:41:59.456Z,6.57
2023-04-09T11:44:26.674Z,6.40
2023-04-09T11:46:54.041Z,6.20
2023-04-09T11:49:22.177Z,6.22
2023-04-09T11:51:49.677Z,6.78
2023-04-09T11:54:16.514Z,6.25
2023-04-09T11:56:43.759Z,6.40
2023-04-09T11:59:11.008Z,5.60
2023-04-09T12:01:37.920Z,22.98
2023-04-09T12:04:06.964Z,6.05
2023-04-09T12:06:34.430Z,5.65
2023-04-09T12:09:01.935Z,5.47
2023-04-09T12:11:31.363Z,5.60
2023-04-09T12:14:05.225Z,5.30
2023-04-09T12:16:36.407Z,5.40
2023-04-09T12:19:11.413Z,5.55
2023-04-09T12:21:56.785Z,5.82
2023-04-09T12:24:25.836Z,5.43
2023-04-09T12:26:52.966Z,5.13
2023-04-09T12:29:21.468Z,5.10
2023-04-09T12:31:48.395Z,5.20
2023-04-09T12:34:15.296Z,4.97
2023-04-09T12:36:42.560Z,5.10
2023-04-09T12:39:10.011Z,4.97
2023-04-09T12:41:37.418Z,5.18
2023-04-09T12:44:05.193Z,4.88
2023-04-09T12:46:32.842Z,4.70
2023-04-09T12:48:59.753Z,4.30
2023-04-09T12:51:26.637Z,4.40
2023-04-09T12:53:54.055Z,4.47
2023-04-09T12:56:21.569Z,4.45
2023-04-09T12:58:48.416Z,4.22
2023-04-09T13:01:15.272Z,4.03
2023-04-09T13:03:42.655Z,4.30
2023-04-09T13:06:10.705Z,4.35
2023-04-09T13:08:37.522Z,3.80
2023-04-09T13:11:04.734Z,3.35
2023-04-09T13:13:32.541Z,4.10
2023-04-09T13:15:59.392Z,4.00
2023-04-09T13:18:26.259Z,4.55
2023-04-09T13:20:53.446Z,4.00
2023-04-09T13:23:20.521Z,4.60
2023-04-09T13:25:47.775Z,4.70
2023-04-09T13:28:14.654Z,7.00
2023-04-09T13:30:41.914Z,6.75
2023-04-09T13:33:09.191Z,6.93
2023-04-09T13:35:37.363Z,5.40
2023-04-09T13:38:04.265Z,6.65
2023-04-09T13:40:31.480Z,6.07
2023-04-09T13:42:58.734Z,5.85
2023-04-09T13:45:26.174Z,5.22
2023-04-09T13:47:53.979Z,5.93
2023-04-09T13:50:21.766Z,6.82
2023-04-09T13:52:48.953Z,6.88
2023-04-09T13:55:15.848Z,5.70
2023-04-09T13:57:42.713Z,5.45
2023-04-09T14:00:10.033Z,6.18
2023-04-09T14:02:37.322Z,5.47
2023-04-09T14:05:04.678Z,5.03
2023-04-09T14:07:32.194Z,5.97
2023-04-09T14:09:59.046Z,6.20
2023-04-09T14:12:26.201Z,5.22
2023-04-09T14:14:53.106Z,6.25
2023-04-09T14:17:20.356Z,6.10
2023-04-09T14:19:48.011Z,5.55
2023-04-09T14:22:15.468Z,6.65
2023-04-09T14:24:42.267Z,6.00
2023-04-09T14:27:09.789Z,6.03
2023-04-09T14:29:36.778Z,5.45
2023-04-09T14:32:03.610Z,5.68
2023-04-09T14:34:31.486Z,5.60
2023-04-09T14:36:58.715Z,5.45
2023-04-09T14:39:26.113Z,5.30
2023-04-09T14:41:53.061Z,5.70
2023-04-09T14:44:20.558Z,6.03
2023-04-09T14:46:47.836Z,4.90
2023-04-09T14:49:14.725Z,5.68
2023-04-09T14:51:41.932Z,5.03
2023-04-09T14:54:09.180Z,4.93
2023-04-09T14:56:36.572Z,4.55
2023-04-09T14:59:03.391Z,4.55
2023-04-09T15:01:32.521Z,6.70
2023-04-09T15:04:00.741Z,4.13
2023-04-09T15:06:29.084Z,4.40
2023-04-09T15:08:56.011Z,4.45
2023-04-09T15:11:23.113Z,4.43
2023-04-09T15:13:50.780Z,4.30
2023-04-09T15:16:25.872Z,4.38
2023-04-09T15:18:55.851Z,4.60
2023-04-09T15:21:23.389Z,4.40
2023-04-09T15:23:54.353Z,4.60
2023-04-09T15:26:21.552Z,4.57
2023-04-09T15:28:48.445Z,4.95
2023-04-09T15:31:15.725Z,4.63
2023-04-09T15:33:43.868Z,4.90
2023-04-09T15:36:11.712Z,5.00
2023-04-09T15:38:38.642Z,5.10
2023-04-09T15:41:06.053Z,5.30
2023-04-09T15:43:32.905Z,4.85
2023-04-09T15:46:00.436Z,4.95
2023-04-09T15:48:27.666Z,5.30
2023-04-09T15:50:54.890Z,5.80
2023-04-09T15:53:26.674Z,5.55
2023-04-09T15:55:53.561Z,5.15
2023-04-09T15:58:20.630Z,5.53
2023-04-09T16:00:51.098Z,5.20
2023-04-09T16:03:19.194Z,5.90
2023-04-09T16:05:48.186Z,5.82
2023-04-09T16:08:15.022Z,5.85
2023-04-09T16:10:41.800Z,5.32
2023-04-09T16:13:08.676Z,5.78
2023-04-09T16:15:36.105Z,5.85
2023-04-09T16:18:03.541Z,6.32
2023-04-09T16:20:31.141Z,6.13
2023-04-09T16:22:58.441Z,6.50
2023-04-09T16:25:25.262Z,7.05
2023-04-09T16:27:52.088Z,6.97
2023-04-09T16:30:19.830Z,8.38
2023-04-09T16:32:47.118Z,7.95
2023-04-09T16:35:14.383Z,6.97
2023-04-09T16:37:41.303Z,7.50
2023-04-09T16:40:08.789Z,7.18
2023-04-09T16:42:36.864Z,8.68
2023-04-09T16:45:04.722Z,8.98
2023-04-09T16:47:32.223Z,8.40
2023-04-09T16:49:59.125Z,7.40
2023-04-09T16:52:26.164Z,7.90
2023-04-09T16:54:53.373Z,10.43
2023-04-09T16:57:20.743Z,8.95
2023-04-09T16:59:47.600Z,12.98
2023-04-09T17:02:14.904Z,12.20
2023-04-09T17:04:41.919Z,15.82
2023-04-09T17:07:09.304Z,14.90
2023-04-09T17:09:36.752Z,16.15
2023-04-09T17:12:04.278Z,12.93
2023-04-09T17:14:33.845Z,11.18
2023-04-09T17:17:00.910Z,10.88
2023-04-09T17:19:27.773Z,12.55
2023-04-09T17:21:54.634Z,9.65
2023-04-09T17:24:21.481Z,10.10
2023-04-09T17:26:48.669Z,10.27
2023-04-09T17:29:16.623Z,10.95
2023-04-09T17:31:44.191Z,10.68
2023-04-09T17:34:11.701Z,10.38
2023-04-09T17:36:38.518Z,11.48
2023-04-09T17:39:06.423Z,10.75
2023-04-09T17:41:33.230Z,10.98
2023-04-09T17:44:00.832Z,11.75
2023-04-09T17:46:27.699Z,11.05
2023-04-09T17:48:55.116Z,11.23
2023-04-09T17:51:22.058Z,11.40
2023-04-09T17:53:49.283Z,10.20
2023-04-09T17:56:17.133Z,11.55
2023-04-09T17:58:44.795Z,11.57
2023-04-09T18:01:14.851Z,11.55
2023-04-09T18:03:43.056Z,10.48
2023-04-09T18:06:11.072Z,11.65
2023-04-09T18:08:38.239Z,12.02
2023-04-09T18:11:12.767Z,13.80
2023-04-09T18:13:41.074Z,12.80
2023-04-09T18:16:12.199Z,12.77
2023-04-09T18:18:39.632Z,13.48
2023-04-09T18:21:06.894Z,15.38
2023-04-09T18:23:34.125Z,14.95
2023-04-09T18:26:01.747Z,15.90
2023-04-09T18:28:29.364Z,17.10
2023-04-09T18:30:56.298Z,16.63
2023-04-09T18:33:23.206Z,18.25
2023-04-09T18:35:50.486Z,17.45
2023-04-09T18:38:17.896Z,17.92
2023-04-09T18:40:45.408Z,17.60
2023-04-09T18:43:12.713Z,16.55
2023-04-09T18:45:39.790Z,16.73
2023-04-09T18:48:08.138Z,17.15
2023-04-09T18:50:36.153Z,16.42
2023-04-09T18:53:03.700Z,17.30
2023-04-09T18:55:31.911Z,16.70
2023-04-09T18:57:59.196Z,16.35
2023-04-09T19:00:26.114Z,16.67
2023-04-09T19:02:53.808Z,17.05
2023-04-09T19:05:21.409Z,15.85
2023-04-09T19:07:48.687Z,16.38
2023-04-09T19:10:16.016Z,15.82
2023-04-09T19:12:49.808Z,14.30
2023-04-09T19:15:17.588Z,13.98
2023-04-09T19:17:44.913Z,16.35
2023-04-09T19:20:12.368Z,15.20
2023-04-09T19:22:39.579Z,31.52
2023-04-09T19:25:07.895Z,19.25
2023-04-09T19:27:34.893Z,16.20
2023-04-09T19:30:01.773Z,16.08
2023-04-09T19:32:29.054Z,17.48
2023-04-09T19:34:56.360Z,15.30
2023-04-09T19:37:27.982Z,15.10
2023-04-09T19:39:55.776Z,16.10
2023-04-09T19:42:23.091Z,14.45
2023-04-09T19:44:50.273Z,15.10
2023-04-09T19:47:17.083Z,15.88
2023-04-09T19:49:44.846Z,16.50
2023-04-09T19:52:12.127Z,16.73
2023-04-09T19:54:39.327Z,16.90
2023-04-09T19:57:06.861Z,17.35
2023-04-09T19:59:36.350Z,17.27
2023-04-09T20:02:03.903Z,17.15
2023-04-09T20:04:31.341Z,17.75
2023-04-09T20:06:58.609Z,17.45
2023-04-09T20:09:27.673Z,17.33
2023-04-09T20:11:55.021Z,18.00
2023-04-09T20:14:22.059Z,17.67
2023-04-09T20:16:49.410Z,22.30
2023-04-09T20:19:16.809Z,21.35
2023-04-09T20:21:43.842Z,20.52
2023-04-09T20:24:11.413Z,22.33
2023-04-09T20:26:38.673Z,22.38
2023-04-09T20:29:05.475Z,23.42
2023-04-09T20:31:34.987Z,23.92
2023-04-09T20:34:03.210Z,37.78
2023-04-09T20:36:30.555Z,28.92
2023-04-09T20:38:57.371Z,23.50
2023-04-09T20:41:24.722Z,19.30
2023-04-09T20:43:51.585Z,20.23
2023-04-09T20:46:19.167Z,20.45
2023-04-09T20:48:46.165Z,20.27
2023-04-09T20:51:14.159Z,19.23
2023-04-09T20:53:41.023Z,19.42
2023-04-09T20:56:09.265Z,20.75
2023-04-09T20:58:36.864Z,20.83
2023-04-09T21:01:06.791Z,19.98
2023-04-09T21:03:35.089Z,21.25
2023-04-09T21:06:02.604Z,21.20
2023-04-09T21:08:30.285Z,20.92
2023-04-09T21:10:57.286Z,19.63
2023-04-09T21:13:25.141Z,20.08
2023-04-09T21:15:52.335Z,19.77
2023-04-09T21:18:19.867Z,23.35
2023-04-09T21:20:46.790Z,25.40
2023-04-09T21:23:13.740Z,20.00
2023-04-09T21:25:41.242Z,20.05
2023-04-09T21:28:08.760Z,21.40
2023-04-09T21:30:37.735Z,20.15
2023-04-09T21:33:09.463Z,20.77
2023-04-09T21:35:36.919Z,21.25
2023-04-09T21:38:04.061Z,22.23
2023-04-09T21:40:31.509Z,22.95
2023-04-09T21:42:58.904Z,20.17
2023-04-09T21:45:26.340Z,19.48
2023-04-09T21:47:53.210Z,20.38
2023-04-09T21:50:20.481Z,20.85
2023-04-09T21:52:47.743Z,19.23
2023-04-09T21:55:14.617Z,20.48
2023-04-09T21:57:41.479Z,19.58
2023-04-09T22:00:10.934Z,18.80
2023-04-09T22:02:39.559Z,21.48
2023-04-09T22:05:06.992Z,22.38
2023-04-09T22:07:35.930Z,22.30
2023-04-09T22:10:03.217Z,21.35
2023-04-09T22:12:30.473Z,23.35
2023-04-09T22:14:57.356Z,25.55
2023-04-09T22:17:24.654Z,23.45
2023-04-09T22:19:51.612Z,23.70
2023-04-09T22:22:18.885Z,21.15
2023-04-09T22:24:46.398Z,20.98
2023-04-09T22:27:13.326Z,21.88
2023-04-09T22:29:40.416Z,20.83
2023-04-09T22:32:07.429Z,21.38
2023-04-09T22:34:34.330Z,19.77
2023-04-09T22:37:02.156Z,18.17
2023-04-09T22:39:29.797Z,19.35
2023-04-09T22:41:58.388Z,18.48
2023-04-09T22:44:25.695Z,18.95
2023-04-09T22:46:53.116Z,42.78
2023-04-09T22:49:20.211Z,23.40
2023-04-09T22:51:47.125Z,19.77
2023-04-09T22:54:14.372Z,18.38
2023-04-09T22:56:41.304Z,19.13
2023-04-09T22:59:08.548Z,18.10
2023-04-09T23:01:35.900Z,17.08
2023-04-09T23:04:03.221Z,18.38
2023-04-09T23:06:31.054Z,16.30
2023-04-09T23:09:00.479Z,16.52
2023-04-09T23:11:27.766Z,16.20
2023-04-09T23:13:54.657Z,16.13
2023-04-09T23:16:22.085Z,17.42
2023-04-09T23:18:48.953Z,17.65
2023-04-09T23:21:15.935Z,15.65
2023-04-09T23:23:43.179Z,16.27
2023-04-09T23:26:10.125Z,17.52
2023-04-09T23:28:36.963Z,17.35
2023-04-09T23:31:04.311Z,17.88
2023-04-09T23:33:32.569Z,17.95
2023-04-09T23:35:59.836Z,17.65
2023-04-09T23:38:27.200Z,17.20
2023-04-09T23:40:54.436Z,18.45
2023-04-09T23:43:21.244Z,16.85
2023-04-09T23:45:50.855Z,17.67
2023-04-09T23:48:18.105Z,18.13
2023-04-09T23:50:45.432Z,18.20
2023-04-09T23:53:12.673Z,17.50
2023-04-09T23:55:41.442Z,17.08
2023-04-09T23:58:09.762Z,18.08
